sensor_id;sensor_type;location;lat;lon;timestamp;P1;durP1;ratioP1;P2;durP2;ratioP2
1082;SDS011;530;51.448;7.238;2022-10-16T00:01:09;2.83;;;2.50;;
1082;SDS011;530;51.448;7.238;2022-10-16T00:03:37;2.50;;;2.30;;
1082;SDS011;530;51.448;7.238;2022-10-16T00:06:04;3.67;;;2.37;;
1082;SDS011;530;51.448;7.238;2022-10-16T00:08:30;3.50;;;2.47;;
1082;SDS011;530;51.448;7.238;2022-10-16T00:11:00;4.37;;;2.20;;
1082;SDS011;530;51.448;7.238;2022-10-16T00:13:28;2.67;;;2.40;;
1082;SDS011;530;51.448;7.238;2022-10-16T00:15:55;2.67;;;2.20;;
1082;SDS011;530;51.448;7.238;2022-10-16T00:18:21;3.60;;;2.70;;
1082;SDS011;530;51.448;7.238;2022-10-16T00:20:47;3.33;;;2.13;;
1082;SDS011;530;51.448;7.238;2022-10-16T00:23:12;2.30;;;2.10;;
1082;SDS011;530;51.448;7.238;2022-10-16T00:25:38;2.97;;;1.93;;
1082;SDS011;530;51.448;7.238;2022-10-16T00:28:03;4.57;;;2.40;;
1082;SDS011;530;51.448;7.238;2022-10-16T00:30:29;4.73;;;2.50;;
1082;SDS011;530;51.448;7.238;2022-10-16T00:32:55;2.77;;;2.23;;
1082;SDS011;530;51.448;7.238;2022-10-16T00:35:21;2.83;;;2.50;;
1082;SDS011;530;51.448;7.238;2022-10-16T00:37:46;4.50;;;2.63;;
1082;SDS011;530;51.448;7.238;2022-10-16T00:40:12;2.67;;;2.10;;
1082;SDS011;530;51.448;7.238;2022-10-16T00:42:37;3.90;;;2.10;;
1082;SDS011;530;51.448;7.238;2022-10-16T00:45:03;2.87;;;2.57;;
1082;SDS011;530;51.448;7.238;2022-10-16T00:47:34;2.10;;;1.90;;
1082;SDS011;530;51.448;7.238;2022-10-16T00:52:36;2.17;;;1.83;;
1082;SDS011;530;51.448;7.238;2022-10-16T00:55:04;3.93;;;2.27;;
1082;SDS011;530;51.448;7.238;2022-10-16T00:57:31;4.13;;;2.20;;
1082;SDS011;530;51.448;7.238;2022-10-16T00:59:57;4.70;;;2.00;;
1082;SDS011;530;51.448;7.238;2022-10-16T01:02:23;2.10;;;1.90;;
1082;SDS011;530;51.448;7.238;2022-10-16T01:04:50;2.90;;;2.03;;
1082;SDS011;530;51.448;7.238;2022-10-16T01:07:29;2.27;;;2.07;;
1082;SDS011;530;51.448;7.238;2022-10-16T01:13:01;2.43;;;1.73;;
1082;SDS011;530;51.448;7.238;2022-10-16T01:18:30;4.60;;;2.40;;
1082;SDS011;530;51.448;7.238;2022-10-16T01:21:04;2.50;;;2.10;;
1082;SDS011;530;51.448;7.238;2022-10-16T01:23:58;4.27;;;2.60;;
1082;SDS011;530;51.448;7.238;2022-10-16T01:29:21;3.00;;;2.30;;
1082;SDS011;530;51.448;7.238;2022-10-16T01:32:14;1.77;;;1.67;;
1082;SDS011;530;51.448;7.238;2022-10-16T01:37:41;2.40;;;1.93;;
1082;SDS011;530;51.448;7.238;2022-10-16T01:40:25;3.23;;;2.57;;
1082;SDS011;530;51.448;7.238;2022-10-16T01:42:53;3.93;;;2.07;;
1082;SDS011;530;51.448;7.238;2022-10-16T01:45:22;3.00;;;2.03;;
1082;SDS011;530;51.448;7.238;2022-10-16T01:47:48;2.53;;;2.33;;
1082;SDS011;530;51.448;7.238;2022-10-16T01:50:17;4.27;;;2.10;;
1082;SDS011;530;51.448;7.238;2022-10-16T01:52:45;2.20;;;2.00;;
1082;SDS011;530;51.448;7.238;2022-10-16T01:55:17;1.83;;;1.73;;
1082;SDS011;530;51.448;7.238;2022-10-16T01:57:54;4.77;;;1.97;;
1082;SDS011;530;51.448;7.238;2022-10-16T02:00:21;3.90;;;2.27;;
1082;SDS011;530;51.448;7.238;2022-10-16T02:02:49;2.07;;;1.90;;
1082;SDS011;530;51.448;7.238;2022-10-16T02:05:24;1.80;;;1.70;;
1082;SDS011;530;51.448;7.238;2022-10-16T02:08:10;2.90;;;1.57;;
1082;SDS011;530;51.448;7.238;2022-10-16T02:10:36;2.67;;;2.00;;
1082;SDS011;530;51.448;7.238;2022-10-16T02:15:36;2.27;;;1.80;;
1082;SDS011;530;51.448;7.238;2022-10-16T02:18:02;2.10;;;1.60;;
1082;SDS011;530;51.448;7.238;2022-10-16T02:20:32;2.40;;;1.77;;
1082;SDS011;530;51.448;7.238;2022-10-16T02:23:01;1.80;;;1.70;;
1082;SDS011;530;51.448;7.238;2022-10-16T02:25:32;2.27;;;1.70;;
1082;SDS011;530;51.448;7.238;2022-10-16T02:31:00;2.90;;;2.00;;
1082;SDS011;530;51.448;7.238;2022-10-16T02:33:26;2.30;;;1.60;;
1082;SDS011;530;51.448;7.238;2022-10-16T02:35:55;1.73;;;1.57;;
1082;SDS011;530;51.448;7.238;2022-10-16T02:38:22;2.00;;;1.80;;
1082;SDS011;530;51.448;7.238;2022-10-16T02:40:49;2.70;;;2.07;;
1082;SDS011;530;51.448;7.238;2022-10-16T02:43:15;2.33;;;1.70;;
1082;SDS011;530;51.448;7.238;2022-10-16T02:45:41;1.80;;;1.50;;
1082;SDS011;530;51.448;7.238;2022-10-16T02:48:07;2.40;;;2.03;;
1082;SDS011;530;51.448;7.238;2022-10-16T02:50:33;3.30;;;1.80;;
1082;SDS011;530;51.448;7.238;2022-10-16T02:52:59;1.30;;;1.20;;
1082;SDS011;530;51.448;7.238;2022-10-16T02:55:25;2.60;;;1.80;;
1082;SDS011;530;51.448;7.238;2022-10-16T02:57:52;1.70;;;1.43;;
1082;SDS011;530;51.448;7.238;2022-10-16T03:00:18;1.50;;;1.40;;
1082;SDS011;530;51.448;7.238;2022-10-16T03:02:44;2.10;;;1.43;;
1082;SDS011;530;51.448;7.238;2022-10-16T03:05:10;1.50;;;1.40;;
1082;SDS011;530;51.448;7.238;2022-10-16T03:07:36;3.50;;;1.70;;
1082;SDS011;530;51.448;7.238;2022-10-16T03:10:01;2.30;;;1.83;;
1082;SDS011;530;51.448;7.238;2022-10-16T03:12:28;1.80;;;1.33;;
1082;SDS011;530;51.448;7.238;2022-10-16T03:14:54;1.83;;;1.50;;
1082;SDS011;530;51.448;7.238;2022-10-16T03:17:21;2.13;;;1.50;;
1082;SDS011;530;51.448;7.238;2022-10-16T03:19:48;1.33;;;1.23;;
1082;SDS011;530;51.448;7.238;2022-10-16T03:22:13;1.47;;;1.37;;
1082;SDS011;530;51.448;7.238;2022-10-16T03:24:39;1.93;;;1.30;;
1082;SDS011;530;51.448;7.238;2022-10-16T03:27:05;4.80;;;1.77;;
1082;SDS011;530;51.448;7.238;2022-10-16T03:29:31;2.17;;;1.20;;
1082;SDS011;530;51.448;7.238;2022-10-16T03:31:57;2.70;;;1.40;;
1082;SDS011;530;51.448;7.238;2022-10-16T03:34:23;3.10;;;1.30;;
1082;SDS011;530;51.448;7.238;2022-10-16T03:36:49;1.40;;;1.30;;
1082;SDS011;530;51.448;7.238;2022-10-16T03:39:15;1.33;;;1.23;;
1082;SDS011;530;51.448;7.238;2022-10-16T03:41:41;1.93;;;1.20;;
1082;SDS011;530;51.448;7.238;2022-10-16T03:44:06;1.03;;;0.93;;
1082;SDS011;530;51.448;7.238;2022-10-16T03:46:32;1.87;;;1.40;;
1082;SDS011;530;51.448;7.238;2022-10-16T03:48:57;2.03;;;1.30;;
1082;SDS011;530;51.448;7.238;2022-10-16T03:51:23;3.43;;;1.43;;
1082;SDS011;530;51.448;7.238;2022-10-16T03:53:49;1.30;;;1.20;;
1082;SDS011;530;51.448;7.238;2022-10-16T03:56:14;2.07;;;1.50;;
1082;SDS011;530;51.448;7.238;2022-10-16T03:58:40;2.50;;;1.50;;
1082;SDS011;530;51.448;7.238;2022-10-16T04:01:06;1.13;;;1.03;;
1082;SDS011;530;51.448;7.238;2022-10-16T04:03:32;1.70;;;1.23;;
1082;SDS011;530;51.448;7.238;2022-10-16T04:05:57;1.40;;;1.30;;
1082;SDS011;530;51.448;7.238;2022-10-16T04:08:23;1.17;;;0.90;;
1082;SDS011;530;51.448;7.238;2022-10-16T04:10:49;1.67;;;1.30;;
1082;SDS011;530;51.448;7.238;2022-10-16T04:13:15;2.83;;;1.10;;
1082;SDS011;530;51.448;7.238;2022-10-16T04:15:41;1.33;;;1.23;;
1082;SDS011;530;51.448;7.238;2022-10-16T04:18:07;2.10;;;1.10;;
1082;SDS011;530;51.448;7.238;2022-10-16T04:20:33;1.10;;;1.00;;
1082;SDS011;530;51.448;7.238;2022-10-16T04:22:59;2.63;;;1.30;;
1082;SDS011;530;51.448;7.238;2022-10-16T04:25:24;1.00;;;0.93;;
1082;SDS011;530;51.448;7.238;2022-10-16T04:27:52;1.40;;;1.13;;
1082;SDS011;530;51.448;7.238;2022-10-16T04:30:18;1.10;;;1.00;;
1082;SDS011;530;51.448;7.238;2022-10-16T04:32:47;1.40;;;1.30;;
1082;SDS011;530;51.448;7.238;2022-10-16T04:35:14;4.10;;;1.30;;
1082;SDS011;530;51.448;7.238;2022-10-16T04:37:40;2.23;;;1.60;;
1082;SDS011;530;51.448;7.238;2022-10-16T04:40:05;2.03;;;1.40;;
1082;SDS011;530;51.448;7.238;2022-10-16T04:42:31;1.40;;;1.00;;
1082;SDS011;530;51.448;7.238;2022-10-16T04:44:57;1.37;;;1.27;;
1082;SDS011;530;51.448;7.238;2022-10-16T04:47:22;1.73;;;1.20;;
1082;SDS011;530;51.448;7.238;2022-10-16T04:49:48;1.43;;;1.33;;
1082;SDS011;530;51.448;7.238;2022-10-16T04:52:14;2.70;;;1.80;;
1082;SDS011;530;51.448;7.238;2022-10-16T04:54:40;2.27;;;1.03;;
1082;SDS011;530;51.448;7.238;2022-10-16T04:57:05;1.23;;;1.13;;
1082;SDS011;530;51.448;7.238;2022-10-16T04:59:31;3.53;;;1.00;;
1082;SDS011;530;51.448;7.238;2022-10-16T05:01:56;1.07;;;0.97;;
1082;SDS011;530;51.448;7.238;2022-10-16T05:04:22;1.57;;;1.23;;
1082;SDS011;530;51.448;7.238;2022-10-16T05:06:48;2.47;;;1.50;;
1082;SDS011;530;51.448;7.238;2022-10-16T05:09:14;2.73;;;1.30;;
1082;SDS011;530;51.448;7.238;2022-10-16T05:11:40;2.33;;;1.60;;
1082;SDS011;530;51.448;7.238;2022-10-16T05:14:05;1.53;;;1.43;;
1082;SDS011;530;51.448;7.238;2022-10-16T05:16:31;3.53;;;1.30;;
1082;SDS011;530;51.448;7.238;2022-10-16T05:18:57;1.13;;;1.03;;
1082;SDS011;530;51.448;7.238;2022-10-16T05:21:22;1.20;;;1.10;;
1082;SDS011;530;51.448;7.238;2022-10-16T05:23:48;1.27;;;1.17;;
1082;SDS011;530;51.448;7.238;2022-10-16T05:26:13;1.40;;;1.30;;
1082;SDS011;530;51.448;7.238;2022-10-16T05:28:39;3.63;;;1.33;;
1082;SDS011;530;51.448;7.238;2022-10-16T05:31:05;1.40;;;1.30;;
1082;SDS011;530;51.448;7.238;2022-10-16T05:33:32;1.20;;;1.10;;
1082;SDS011;530;51.448;7.238;2022-10-16T05:36:02;2.37;;;1.73;;
1082;SDS011;530;51.448;7.238;2022-10-16T05:38:33;1.40;;;1.20;;
1082;SDS011;530;51.448;7.238;2022-10-16T05:40:59;1.60;;;1.50;;
1082;SDS011;530;51.448;7.238;2022-10-16T05:43:26;1.83;;;1.30;;
1082;SDS011;530;51.448;7.238;2022-10-16T05:46:03;1.27;;;1.17;;
1082;SDS011;530;51.448;7.238;2022-10-16T05:48:30;1.60;;;1.23;;
1082;SDS011;530;51.448;7.238;2022-10-16T05:50:59;3.87;;;1.13;;
1082;SDS011;530;51.448;7.238;2022-10-16T05:53:27;1.50;;;1.40;;
1082;SDS011;530;51.448;7.238;2022-10-16T05:55:54;1.77;;;1.60;;
1082;SDS011;530;51.448;7.238;2022-10-16T05:58:21;2.03;;;1.43;;
1082;SDS011;530;51.448;7.238;2022-10-16T06:01:00;3.60;;;1.33;;
1082;SDS011;530;51.448;7.238;2022-10-16T06:03:32;2.00;;;1.50;;
1082;SDS011;530;51.448;7.238;2022-10-16T06:05:58;1.90;;;1.60;;
1082;SDS011;530;51.448;7.238;2022-10-16T06:08:23;3.43;;;1.60;;
1082;SDS011;530;51.448;7.238;2022-10-16T06:10:59;1.80;;;1.50;;
1082;SDS011;530;51.448;7.238;2022-10-16T06:13:27;2.23;;;1.50;;
1082;SDS011;530;51.448;7.238;2022-10-16T06:15:52;1.60;;;1.50;;
1082;SDS011;530;51.448;7.238;2022-10-16T06:18:18;1.50;;;1.40;;
1082;SDS011;530;51.448;7.238;2022-10-16T06:20:43;2.60;;;1.40;;
1082;SDS011;530;51.448;7.238;2022-10-16T06:23:09;1.20;;;1.10;;
1082;SDS011;530;51.448;7.238;2022-10-16T06:25:35;3.20;;;1.77;;
1082;SDS011;530;51.448;7.238;2022-10-16T06:28:00;2.30;;;2.00;;
1082;SDS011;530;51.448;7.238;2022-10-16T06:30:26;2.30;;;1.50;;
1082;SDS011;530;51.448;7.238;2022-10-16T06:32:51;2.60;;;1.30;;
1082;SDS011;530;51.448;7.238;2022-10-16T06:35:17;1.73;;;1.63;;
1082;SDS011;530;51.448;7.238;2022-10-16T06:37:42;3.30;;;1.57;;
1082;SDS011;530;51.448;7.238;2022-10-16T06:40:08;2.37;;;1.60;;
1082;SDS011;530;51.448;7.238;2022-10-16T06:42:34;1.53;;;1.43;;
1082;SDS011;530;51.448;7.238;2022-10-16T06:44:59;3.30;;;1.60;;
1082;SDS011;530;51.448;7.238;2022-10-16T06:47:26;2.10;;;1.90;;
1082;SDS011;530;51.448;7.238;2022-10-16T06:49:52;1.63;;;1.53;;
1082;SDS011;530;51.448;7.238;2022-10-16T06:52:18;1.70;;;1.50;;
1082;SDS011;530;51.448;7.238;2022-10-16T06:54:43;4.47;;;1.33;;
1082;SDS011;530;51.448;7.238;2022-10-16T06:57:09;1.93;;;1.67;;
1082;SDS011;530;51.448;7.238;2022-10-16T06:59:34;2.33;;;1.77;;
1082;SDS011;530;51.448;7.238;2022-10-16T07:02:00;2.30;;;1.60;;
1082;SDS011;530;51.448;7.238;2022-10-16T07:04:26;1.60;;;1.50;;
1082;SDS011;530;51.448;7.238;2022-10-16T07:06:51;1.97;;;1.77;;
1082;SDS011;530;51.448;7.238;2022-10-16T07:09:17;1.90;;;1.80;;
1082;SDS011;530;51.448;7.238;2022-10-16T07:11:43;2.20;;;1.50;;
1082;SDS011;530;51.448;7.238;2022-10-16T07:14:15;5.00;;;1.70;;
1082;SDS011;530;51.448;7.238;2022-10-16T07:16:42;1.90;;;1.60;;
1082;SDS011;530;51.448;7.238;2022-10-16T07:19:08;3.03;;;2.00;;
1082;SDS011;530;51.448;7.238;2022-10-16T07:21:36;6.03;;;1.70;;
1082;SDS011;530;51.448;7.238;2022-10-16T07:24:02;1.57;;;1.47;;
1082;SDS011;530;51.448;7.238;2022-10-16T07:26:32;1.90;;;1.77;;
1082;SDS011;530;51.448;7.238;2022-10-16T07:28:59;3.33;;;1.77;;
1082;SDS011;530;51.448;7.238;2022-10-16T07:31:25;4.83;;;2.67;;
1082;SDS011;530;51.448;7.238;2022-10-16T07:33:52;1.17;;;1.10;;
1082;SDS011;530;51.448;7.238;2022-10-16T07:36:18;5.10;;;1.90;;
1082;SDS011;530;51.448;7.238;2022-10-16T07:38:45;1.40;;;1.30;;
1082;SDS011;530;51.448;7.238;2022-10-16T07:41:15;2.23;;;1.57;;
1082;SDS011;530;51.448;7.238;2022-10-16T07:43:49;1.80;;;1.70;;
1082;SDS011;530;51.448;7.238;2022-10-16T07:46:16;1.60;;;1.50;;
1082;SDS011;530;51.448;7.238;2022-10-16T07:48:43;3.57;;;1.97;;
1082;SDS011;530;51.448;7.238;2022-10-16T07:51:16;1.73;;;1.60;;
1082;SDS011;530;51.448;7.238;2022-10-16T07:53:43;3.40;;;1.80;;
1082;SDS011;530;51.448;7.238;2022-10-16T07:56:09;1.60;;;1.50;;
1082;SDS011;530;51.448;7.238;2022-10-16T07:58:35;1.53;;;1.43;;
1082;SDS011;530;51.448;7.238;2022-10-16T08:01:05;1.77;;;1.50;;
1082;SDS011;530;51.448;7.238;2022-10-16T08:03:32;1.63;;;1.53;;
1082;SDS011;530;51.448;7.238;2022-10-16T08:05:58;1.40;;;1.30;;
1082;SDS011;530;51.448;7.238;2022-10-16T08:08:24;1.73;;;1.63;;
1082;SDS011;530;51.448;7.238;2022-10-16T08:10:50;2.67;;;1.50;;
1082;SDS011;530;51.448;7.238;2022-10-16T08:13:15;1.40;;;1.30;;
1082;SDS011;530;51.448;7.238;2022-10-16T08:15:41;1.83;;;1.40;;
1082;SDS011;530;51.448;7.238;2022-10-16T08:18:09;2.70;;;1.50;;
1082;SDS011;530;51.448;7.238;2022-10-16T08:20:35;2.00;;;1.77;;
1082;SDS011;530;51.448;7.238;2022-10-16T08:23:01;1.93;;;1.30;;
1082;SDS011;530;51.448;7.238;2022-10-16T08:25:26;2.13;;;1.40;;
1082;SDS011;530;51.448;7.238;2022-10-16T08:27:52;2.77;;;1.97;;
1082;SDS011;530;51.448;7.238;2022-10-16T08:30:19;2.87;;;1.73;;
1082;SDS011;530;51.448;7.238;2022-10-16T08:32:45;2.90;;;1.67;;
1082;SDS011;530;51.448;7.238;2022-10-16T08:35:11;1.60;;;1.20;;
1082;SDS011;530;51.448;7.238;2022-10-16T08:37:38;2.03;;;1.37;;
1082;SDS011;530;51.448;7.238;2022-10-16T08:40:05;1.87;;;1.40;;
1082;SDS011;530;51.448;7.238;2022-10-16T08:47:56;3.10;;;1.10;;
1082;SDS011;530;51.448;7.238;2022-10-16T08:50:25;2.57;;;1.40;;
1082;SDS011;530;51.448;7.238;2022-10-16T08:52:53;2.90;;;1.30;;
1082;SDS011;530;51.448;7.238;2022-10-16T08:57:51;2.33;;;1.00;;
1082;SDS011;530;51.448;7.238;2022-10-16T09:00:17;52.20;;;5.13;;
1082;SDS011;530;51.448;7.238;2022-10-16T09:02:45;33.33;;;5.00;;
1082;SDS011;530;51.448;7.238;2022-10-16T09:05:37;40.00;;;5.13;;
1082;SDS011;530;51.448;7.238;2022-10-16T09:13:39;11.33;;;1.93;;
1082;SDS011;530;51.448;7.238;2022-10-16T09:16:13;2.73;;;1.10;;
1082;SDS011;530;51.448;7.238;2022-10-16T09:18:58;1.17;;;0.87;;
1082;SDS011;530;51.448;7.238;2022-10-16T09:21:32;1.20;;;0.90;;
1082;SDS011;530;51.448;7.238;2022-10-16T09:24:11;10.97;;;1.30;;
1082;SDS011;530;51.448;7.238;2022-10-16T09:26:42;2.47;;;0.90;;
1082;SDS011;530;51.448;7.238;2022-10-16T09:29:14;3.40;;;1.20;;
1082;SDS011;530;51.448;7.238;2022-10-16T09:31:42;2.53;;;1.00;;
1082;SDS011;530;51.448;7.238;2022-10-16T09:34:51;1.77;;;1.00;;
1082;SDS011;530;51.448;7.238;2022-10-16T09:37:03;2.10;;;1.03;;
1082;SDS011;530;51.448;7.238;2022-10-16T09:39:50;1.90;;;0.87;;
1082;SDS011;530;51.448;7.238;2022-10-16T09:42:21;2.17;;;0.93;;
1082;SDS011;530;51.448;7.238;2022-10-16T09:44:57;2.00;;;0.90;;
1082;SDS011;530;51.448;7.238;2022-10-16T09:47:24;4.00;;;1.00;;
1082;SDS011;530;51.448;7.238;2022-10-16T09:49:53;2.53;;;0.93;;
1082;SDS011;530;51.448;7.238;2022-10-16T09:52:25;1.63;;;0.80;;
1082;SDS011;530;51.448;7.238;2022-10-16T09:54:58;2.93;;;1.23;;
1082;SDS011;530;51.448;7.238;2022-10-16T09:57:26;1.80;;;0.70;;
1082;SDS011;530;51.448;7.238;2022-10-16T09:59:53;3.43;;;1.30;;
1082;SDS011;530;51.448;7.238;2022-10-16T10:02:30;2.17;;;1.33;;
1082;SDS011;530;51.448;7.238;2022-10-16T10:04:59;1.90;;;0.90;;
1082;SDS011;530;51.448;7.238;2022-10-16T10:07:26;3.23;;;1.00;;
1082;SDS011;530;51.448;7.238;2022-10-16T10:09:58;0.90;;;0.80;;
1082;SDS011;530;51.448;7.238;2022-10-16T10:12:25;1.67;;;0.77;;
1082;SDS011;530;51.448;7.238;2022-10-16T10:15:04;1.67;;;0.80;;
1082;SDS011;530;51.448;7.238;2022-10-16T10:17:44;1.33;;;0.83;;
1082;SDS011;530;51.448;7.238;2022-10-16T10:23:00;3.17;;;0.83;;
1082;SDS011;530;51.448;7.238;2022-10-16T10:31:14;1.50;;;0.70;;
1082;SDS011;530;51.448;7.238;2022-10-16T10:37:01;1.20;;;0.80;;
1082;SDS011;530;51.448;7.238;2022-10-16T10:39:37;2.60;;;1.17;;
1082;SDS011;530;51.448;7.238;2022-10-16T10:42:12;2.10;;;0.97;;
1082;SDS011;530;51.448;7.238;2022-10-16T11:01:16;1.20;;;0.60;;
1082;SDS011;530;51.448;7.238;2022-10-16T11:17:15;1.57;;;1.07;;
1082;SDS011;530;51.448;7.238;2022-10-16T11:19:48;4.50;;;1.30;;
1082;SDS011;530;51.448;7.238;2022-10-16T11:25:20;0.83;;;0.70;;
1082;SDS011;530;51.448;7.238;2022-10-16T11:28:07;1.13;;;0.70;;
1082;SDS011;530;51.448;7.238;2022-10-16T11:30:49;1.47;;;0.60;;
1082;SDS011;530;51.448;7.238;2022-10-16T11:33:27;2.30;;;1.10;;
1082;SDS011;530;51.448;7.238;2022-10-16T11:36:12;1.63;;;0.80;;
1082;SDS011;530;51.448;7.238;2022-10-16T11:44:09;4.10;;;0.80;;
1082;SDS011;530;51.448;7.238;2022-10-16T11:46:38;1.53;;;0.77;;
1082;SDS011;530;51.448;7.238;2022-10-16T11:49:14;1.23;;;0.50;;
1082;SDS011;530;51.448;7.238;2022-10-16T11:51:45;1.77;;;0.63;;
1082;SDS011;530;51.448;7.238;2022-10-16T11:54:28;1.60;;;0.73;;
1082;SDS011;530;51.448;7.238;2022-10-16T11:57:05;1.50;;;0.83;;
1082;SDS011;530;51.448;7.238;2022-10-16T12:05:14;3.13;;;0.80;;
1082;SDS011;530;51.448;7.238;2022-10-16T12:08:08;1.80;;;0.80;;
1082;SDS011;530;51.448;7.238;2022-10-16T12:10:36;1.93;;;1.00;;
1082;SDS011;530;51.448;7.238;2022-10-16T12:13:04;1.13;;;0.70;;
1082;SDS011;530;51.448;7.238;2022-10-16T12:15:50;2.03;;;0.70;;
1082;SDS011;530;51.448;7.238;2022-10-16T12:18:22;1.83;;;1.10;;
1082;SDS011;530;51.448;7.238;2022-10-16T12:20:56;2.17;;;1.00;;
1082;SDS011;530;51.448;7.238;2022-10-16T12:23:30;1.83;;;0.80;;
1082;SDS011;530;51.448;7.238;2022-10-16T12:26:00;3.60;;;0.90;;
1082;SDS011;530;51.448;7.238;2022-10-16T12:28:28;0.80;;;0.50;;
1082;SDS011;530;51.448;7.238;2022-10-16T12:31:03;1.23;;;0.70;;
1082;SDS011;530;51.448;7.238;2022-10-16T12:33:35;2.70;;;0.70;;
1082;SDS011;530;51.448;7.238;2022-10-16T12:36:03;0.97;;;0.63;;
1082;SDS011;530;51.448;7.238;2022-10-16T12:38:48;1.83;;;0.80;;
1082;SDS011;530;51.448;7.238;2022-10-16T12:41:29;3.07;;;0.87;;
1082;SDS011;530;51.448;7.238;2022-10-16T12:43:57;1.50;;;0.50;;
1082;SDS011;530;51.448;7.238;2022-10-16T12:46:26;1.50;;;0.80;;
1082;SDS011;530;51.448;7.238;2022-10-16T12:51:41;1.30;;;0.67;;
1082;SDS011;530;51.448;7.238;2022-10-16T12:54:14;0.80;;;0.50;;
1082;SDS011;530;51.448;7.238;2022-10-16T12:56:44;2.70;;;0.73;;
1082;SDS011;530;51.448;7.238;2022-10-16T12:59:52;1.43;;;0.50;;
1082;SDS011;530;51.448;7.238;2022-10-16T13:08:29;1.10;;;0.60;;
1082;SDS011;530;51.448;7.238;2022-10-16T13:19:17;1.97;;;0.70;;
1082;SDS011;530;51.448;7.238;2022-10-16T13:22:03;1.67;;;0.70;;
1082;SDS011;530;51.448;7.238;2022-10-16T13:30:00;1.53;;;1.17;;
1082;SDS011;530;51.448;7.238;2022-10-16T13:32:33;0.60;;;0.50;;
1082;SDS011;530;51.448;7.238;2022-10-16T13:34:58;1.47;;;0.57;;
1082;SDS011;530;51.448;7.238;2022-10-16T13:37:25;1.13;;;0.60;;
1082;SDS011;530;51.448;7.238;2022-10-16T13:40:02;0.87;;;0.60;;
1082;SDS011;530;51.448;7.238;2022-10-16T13:42:49;1.60;;;0.70;;
1082;SDS011;530;51.448;7.238;2022-10-16T13:45:23;2.53;;;0.57;;
1082;SDS011;530;51.448;7.238;2022-10-16T13:48:05;1.30;;;0.60;;
1082;SDS011;530;51.448;7.238;2022-10-16T13:50:34;2.67;;;0.77;;
1082;SDS011;530;51.448;7.238;2022-10-16T13:53:06;1.67;;;0.70;;
1082;SDS011;530;51.448;7.238;2022-10-16T13:55:37;1.80;;;0.97;;
1082;SDS011;530;51.448;7.238;2022-10-16T13:58:11;1.13;;;0.67;;
1082;SDS011;530;51.448;7.238;2022-10-16T14:00:38;1.57;;;0.60;;
1082;SDS011;530;51.448;7.238;2022-10-16T14:03:05;1.70;;;0.87;;
1082;SDS011;530;51.448;7.238;2022-10-16T14:05:40;1.27;;;0.90;;
1082;SDS011;530;51.448;7.238;2022-10-16T14:08:12;1.43;;;0.50;;
1082;SDS011;530;51.448;7.238;2022-10-16T14:10:38;1.97;;;1.13;;
1082;SDS011;530;51.448;7.238;2022-10-16T14:13:05;1.73;;;0.70;;
1082;SDS011;530;51.448;7.238;2022-10-16T14:15:32;1.53;;;0.87;;
1082;SDS011;530;51.448;7.238;2022-10-16T14:18:00;1.10;;;0.70;;
1082;SDS011;530;51.448;7.238;2022-10-16T14:20:27;1.13;;;0.67;;
1082;SDS011;530;51.448;7.238;2022-10-16T14:22:59;1.00;;;0.67;;
1082;SDS011;530;51.448;7.238;2022-10-16T14:25:28;1.60;;;1.20;;
1082;SDS011;530;51.448;7.238;2022-10-16T14:36:11;2.03;;;0.87;;
1082;SDS011;530;51.448;7.238;2022-10-16T14:38:39;0.60;;;0.60;;
1082;SDS011;530;51.448;7.238;2022-10-16T14:41:07;1.30;;;0.60;;
1082;SDS011;530;51.448;7.238;2022-10-16T14:43:35;1.57;;;0.80;;
1082;SDS011;530;51.448;7.238;2022-10-16T14:46:03;1.20;;;0.90;;
1082;SDS011;530;51.448;7.238;2022-10-16T14:48:42;2.40;;;0.80;;
1082;SDS011;530;51.448;7.238;2022-10-16T14:51:19;3.23;;;1.00;;
1082;SDS011;530;51.448;7.238;2022-10-16T14:53:45;1.53;;;0.60;;
1082;SDS011;530;51.448;7.238;2022-10-16T14:58:44;1.70;;;0.80;;
1082;SDS011;530;51.448;7.238;2022-10-16T15:01:10;1.90;;;0.90;;
1082;SDS011;530;51.448;7.238;2022-10-16T15:03:37;2.40;;;0.90;;
1082;SDS011;530;51.448;7.238;2022-10-16T15:06:03;4.87;;;1.40;;
1082;SDS011;530;51.448;7.238;2022-10-16T15:08:36;1.00;;;0.73;;
1082;SDS011;530;51.448;7.238;2022-10-16T15:11:01;2.10;;;0.87;;
1082;SDS011;530;51.448;7.238;2022-10-16T15:13:27;0.97;;;0.73;;
1082;SDS011;530;51.448;7.238;2022-10-16T15:15:53;3.10;;;1.07;;
1082;SDS011;530;51.448;7.238;2022-10-16T15:18:18;1.30;;;1.20;;
1082;SDS011;530;51.448;7.238;2022-10-16T15:20:47;1.60;;;0.93;;
1082;SDS011;530;51.448;7.238;2022-10-16T15:23:15;3.23;;;0.87;;
1082;SDS011;530;51.448;7.238;2022-10-16T15:25:52;1.93;;;0.90;;
1082;SDS011;530;51.448;7.238;2022-10-16T15:28:19;2.80;;;1.00;;
1082;SDS011;530;51.448;7.238;2022-10-16T15:30:46;1.17;;;0.70;;
1082;SDS011;530;51.448;7.238;2022-10-16T15:33:15;1.63;;;0.80;;
1082;SDS011;530;51.448;7.238;2022-10-16T15:35:42;3.00;;;0.93;;
1082;SDS011;530;51.448;7.238;2022-10-16T15:38:12;1.70;;;0.97;;
1082;SDS011;530;51.448;7.238;2022-10-16T15:40:38;1.07;;;0.80;;
1082;SDS011;530;51.448;7.238;2022-10-16T15:43:04;1.00;;;0.80;;
1082;SDS011;530;51.448;7.238;2022-10-16T15:45:30;1.20;;;0.80;;
1082;SDS011;530;51.448;7.238;2022-10-16T15:47:56;3.23;;;0.93;;
1082;SDS011;530;51.448;7.238;2022-10-16T15:50:22;1.13;;;0.77;;
1082;SDS011;530;51.448;7.238;2022-10-16T15:52:48;0.80;;;0.70;;
1082;SDS011;530;51.448;7.238;2022-10-16T15:55:15;4.50;;;1.33;;
1082;SDS011;530;51.448;7.238;2022-10-16T15:57:42;1.40;;;1.00;;
1082;SDS011;530;51.448;7.238;2022-10-16T16:00:09;2.97;;;1.30;;
1082;SDS011;530;51.448;7.238;2022-10-16T16:02:36;1.40;;;1.00;;
1082;SDS011;530;51.448;7.238;2022-10-16T16:05:02;2.13;;;1.03;;
1082;SDS011;530;51.448;7.238;2022-10-16T16:07:31;1.40;;;1.30;;
1082;SDS011;530;51.448;7.238;2022-10-16T16:09:58;1.20;;;1.00;;
1082;SDS011;530;51.448;7.238;2022-10-16T16:12:23;3.07;;;1.03;;
1082;SDS011;530;51.448;7.238;2022-10-16T16:14:49;2.17;;;1.10;;
1082;SDS011;530;51.448;7.238;2022-10-16T16:17:16;2.27;;;1.00;;
1082;SDS011;530;51.448;7.238;2022-10-16T16:19:42;5.43;;;1.10;;
1082;SDS011;530;51.448;7.238;2022-10-16T16:22:07;4.33;;;1.20;;
1082;SDS011;530;51.448;7.238;2022-10-16T16:24:33;2.30;;;1.00;;
1082;SDS011;530;51.448;7.238;2022-10-16T16:26:59;1.90;;;0.97;;
1082;SDS011;530;51.448;7.238;2022-10-16T16:29:24;1.57;;;1.20;;
1082;SDS011;530;51.448;7.238;2022-10-16T16:31:50;1.20;;;1.00;;
1082;SDS011;530;51.448;7.238;2022-10-16T16:34:22;2.70;;;1.47;;
1082;SDS011;530;51.448;7.238;2022-10-16T16:36:49;2.40;;;1.40;;
1082;SDS011;530;51.448;7.238;2022-10-16T16:39:15;1.30;;;1.20;;
1082;SDS011;530;51.448;7.238;2022-10-16T16:41:41;1.70;;;1.30;;
1082;SDS011;530;51.448;7.238;2022-10-16T16:44:08;2.10;;;1.20;;
1082;SDS011;530;51.448;7.238;2022-10-16T16:46:35;4.03;;;1.17;;
1082;SDS011;530;51.448;7.238;2022-10-16T16:49:02;2.40;;;1.00;;
1082;SDS011;530;51.448;7.238;2022-10-16T16:51:28;3.37;;;1.10;;
1082;SDS011;530;51.448;7.238;2022-10-16T16:53:54;2.20;;;0.90;;
1082;SDS011;530;51.448;7.238;2022-10-16T16:56:20;3.20;;;1.00;;
1082;SDS011;530;51.448;7.238;2022-10-16T16:58:48;2.73;;;1.37;;
1082;SDS011;530;51.448;7.238;2022-10-16T17:01:15;2.10;;;1.20;;
1082;SDS011;530;51.448;7.238;2022-10-16T17:03:41;1.67;;;1.00;;
1082;SDS011;530;51.448;7.238;2022-10-16T17:06:12;1.50;;;1.00;;
1082;SDS011;530;51.448;7.238;2022-10-16T17:08:39;2.40;;;1.13;;
1082;SDS011;530;51.448;7.238;2022-10-16T17:11:05;1.60;;;0.97;;
1082;SDS011;530;51.448;7.238;2022-10-16T17:13:36;1.43;;;1.10;;
1082;SDS011;530;51.448;7.238;2022-10-16T17:16:03;1.80;;;1.10;;
1082;SDS011;530;51.448;7.238;2022-10-16T17:18:30;1.53;;;1.10;;
1082;SDS011;530;51.448;7.238;2022-10-16T17:20:59;1.50;;;1.40;;
1082;SDS011;530;51.448;7.238;2022-10-16T17:23:26;3.37;;;2.33;;
1082;SDS011;530;51.448;7.238;2022-10-16T17:25:52;1.80;;;1.60;;
1082;SDS011;530;51.448;7.238;2022-10-16T17:28:18;2.20;;;1.70;;
1082;SDS011;530;51.448;7.238;2022-10-16T17:30:44;1.50;;;1.40;;
1082;SDS011;530;51.448;7.238;2022-10-16T17:33:10;2.20;;;1.63;;
1082;SDS011;530;51.448;7.238;2022-10-16T17:35:40;1.60;;;1.50;;
1082;SDS011;530;51.448;7.238;2022-10-16T17:38:08;1.63;;;1.27;;
1082;SDS011;530;51.448;7.238;2022-10-16T17:40:34;2.10;;;1.10;;
1082;SDS011;530;51.448;7.238;2022-10-16T17:43:00;2.80;;;1.30;;